Time;durP1;ratioP1;P1;durP2;ratioP2;P2;SDS_P1;SDS_P2;PMS_P1;PMS_P2;Temp;Humidity;BMP_temperature;BMP_pressure;BME280_temperature;BME280_humidity;BME280_pressure;Samples;Min_cycle;Max_cycle;Signal;HPM_P1;HPM_P2
2022/02/08 00:00:09;;;;;;;;;;;;;;;4.91;65.76;98538.16;5093603;28;660;-56
2022/02/08 00:02:41;;;;;;;;;;;;;;;4.89;66.02;98528.78;5093410;28;852;-57
2022/02/08 00:05:09;;;;;;;;;;;;;;;4.87;65.93;98511.97;5093375;28;826;-56
2022/02/08 00:07:36;;;;;;;;;;;;;;;4.85;65.85;98541.69;5093251;28;978;-56
2022/02/08 00:10:04;;;;;;;;;;;;;;;4.93;65.23;98550.66;5092945;28;1934;-56
2022/02/08 00:12:32;;;;;;;;;;;;;;;4.91;65.19;98538.16;5093249;28;787;-53
2022/02/08 00:14:59;;;;;;;;;;;;;;;4.86;65.72;98545.97;5093098;28;1006;-57
2022/02/08 00:17:24;;;;;;;;;;;;;;;4.86;65.60;98527.59;5093125;28;877;-55
2022/02/08 00:19:50;;;;;;;;;;;;;;;4.82;66.25;98537.00;5092920;28;902;-57
2022/02/08 00:22:18;;;;;;;;;;;;;;;4.82;65.92;98518.63;5092882;28;1394;-56
2022/02/08 00:24:44;;;;;;;;;;;;;;;4.85;65.78;98515.09;5092502;28;886;-54
2022/02/08 00:27:11;;;;;;;;;;;;;;;4.73;66.65;98542.09;5092950;28;969;-57
2022/02/08 00:29:37;;;;;;;;;;;;;;;4.75;66.13;98529.56;5092695;28;1918;-56
2022/02/08 00:32:06;;;;;;;;;;;;;;;4.76;66.56;98550.31;5092800;28;854;-55
2022/02/08 00:34:31;;;;;;;;;;;;;;;4.77;66.46;98548.34;5092696;28;918;-56
2022/02/08 00:36:58;;;;;;;;;;;;;;;4.73;66.60;98564.78;5092762;28;894;-56
2022/02/08 00:42:32;;;;;;;;;;;;;;;4.70;66.86;98569.09;5092775;28;632;-56
2022/02/08 00:45:15;;;;;;;;;;;;;;;4.48;68.22;98545.63;5092678;28;830;-57
2022/02/08 00:47:44;;;;;;;;;;;;;;;4.38;68.75;98571.06;5092334;28;911;-54
2022/02/08 00:50:42;;;;;;;;;;;;;;;4.20;69.07;98610.09;5092352;28;1951;-49
2022/02/08 00:53:09;;;;;;;;;;;;;;;4.08;69.49;98569.47;5092509;28;890;-48
2022/02/08 00:55:34;;;;;;;;;;;;;;;3.92;70.67;98552.66;5092799;28;784;-51
2022/02/08 00:58:10;;;;;;;;;;;;;;;3.67;71.98;98591.66;5092313;28;937;-56
2022/02/08 01:00:37;;;;;;;;;;;;;;;3.49;73.40;98605.22;5092378;28;902;-55
2022/02/08 01:03:06;;;;;;;;;;;;;;;3.44;73.14;98565.41;5092322;28;886;-51
2022/02/08 01:05:41;;;;;;;;;;;;;;;3.43;73.67;98602.06;5092275;28;862;-55
2022/02/08 01:08:08;;;;;;;;;;;;;;;3.37;73.66;98584.50;5107123;28;941;-51
2022/02/08 01:10:38;;;;;;;;;;;;;;;3.41;74.26;98620.78;5092112;28;1964;-52
2022/02/08 01:13:05;;;;;;;;;;;;;;;3.40;73.68;98602.84;5092306;28;942;-54
2022/02/08 01:15:32;;;;;;;;;;;;;;;3.38;74.25;98615.34;5092256;28;981;-55
2022/02/08 01:17:59;;;;;;;;;;;;;;;3.45;73.23;98605.19;5092145;28;850;-54
2022/02/08 01:20:32;;;;;;;;;;;;;;;3.57;72.30;98600.59;5091874;28;977;-56
2022/02/08 01:23:04;;;;;;;;;;;;;;;3.73;71.36;98614.69;5091977;28;1396;-54
2022/02/08 01:25:36;;;;;;;;;;;;;;;3.67;71.32;98613.50;5091764;28;953;-55
2022/02/08 01:28:21;;;;;;;;;;;;;;;3.53;72.33;98613.44;5092098;28;886;-55
2022/02/08 01:34:13;;;;;;;;;;;;;;;3.44;73.92;98635.66;5091914;28;597;-56
2022/02/08 01:36:50;;;;;;;;;;;;;;;3.10;75.42;98622.19;5090685;28;957;-57
2022/02/08 01:50:26;;;;;;;;;;;;;;;2.16;83.70;98660.81;5091549;28;1894;-63
2022/02/08 01:52:53;;;;;;;;;;;;;;;2.02;85.11;98672.31;5091570;28;830;-66
2022/02/08 01:55:19;;;;;;;;;;;;;;;1.90;85.93;98667.13;5091661;28;882;-62
2022/02/08 01:57:46;;;;;;;;;;;;;;;1.72;86.63;98683.25;5091592;28;838;-61
2022/02/08 02:00:14;;;;;;;;;;;;;;;1.60;88.22;98689.72;5091504;28;862;-61
2022/02/08 02:02:41;;;;;;;;;;;;;;;1.54;89.31;98680.31;5091548;28;865;-61
2022/02/08 02:05:08;;;;;;;;;;;;;;;1.44;90.79;98708.97;5091326;28;886;-61
2022/02/08 02:07:34;;;;;;;;;;;;;;;1.40;90.43;98697.25;5091418;28;815;-63
2022/02/08 02:10:00;;;;;;;;;;;;;;;1.31;90.94;98713.84;5091247;28;1886;-62
2022/02/08 02:12:26;;;;;;;;;;;;;;;0.98;92.18;98739.78;5091719;28;858;-62
2022/02/08 02:14:54;;;;;;;;;;;;;;;0.80;93.04;98733.25;5073127;28;1166;-60
2022/02/08 02:17:20;;;;;;;;;;;;;;;0.78;94.36;98730.91;5091349;28;879;-59
2022/02/08 02:19:47;;;;;;;;;;;;;;;0.83;94.31;98751.56;5091338;28;842;-65
2022/02/08 02:22:14;;;;;;;;;;;;;;;0.87;94.35;98733.38;5091146;28;1222;-63
2022/02/08 02:24:41;;;;;;;;;;;;;;;1.02;94.14;98727.03;5073150;28;719;-59
2022/02/08 02:27:09;;;;;;;;;;;;;;;1.10;94.39;98700.69;5091342;28;870;-61
2022/02/08 02:29:36;;;;;;;;;;;;;;;1.18;93.83;98726.09;5091046;28;1980;-62
2022/02/08 02:32:03;;;;;;;;;;;;;;;1.16;93.08;98737.34;5091144;28;870;-63
2022/02/08 02:34:30;;;;;;;;;;;;;;;1.12;93.40;98722.13;5091243;28;823;-60
2022/02/08 02:36:59;;;;;;;;;;;;;;;1.08;94.01;98746.53;5091098;28;831;-61
2022/02/08 02:39:26;;;;;;;;;;;;;;;1.04;94.18;98713.03;5091173;28;854;-66
2022/02/08 02:41:53;;;;;;;;;;;;;;;0.99;93.96;98735.13;5091170;28;819;-60
2022/02/08 02:44:22;;;;;;;;;;;;;;;0.90;95.03;98759.88;5072960;28;878;-60
2022/02/08 02:46:49;;;;;;;;;;;;;;;0.91;94.85;98761.41;5091085;28;838;-60
2022/02/08 02:49:15;;;;;;;;;;;;;;;0.84;95.50;98764.03;5094794;28;1952;-67
2022/02/08 02:51:42;;;;;;;;;;;;;;;0.79;95.20;98756.16;5094817;28;890;-60
2022/02/08 02:54:15;;;;;;;;;;;;;;;0.76;95.47;98784.88;5094795;28;843;-60
2022/02/08 02:56:42;;;;;;;;;;;;;;;0.83;95.32;98762.44;5094888;28;893;-59
2022/02/08 02:59:09;;;;;;;;;;;;;;;0.87;95.90;98784.28;5095198;28;859;-59
2022/02/08 03:01:46;;;;;;;;;;;;;;;0.89;95.44;98769.16;5094565;28;795;-58
2022/02/08 03:04:31;;;;;;;;;;;;;;;0.83;95.28;98784.22;5094630;28;834;-59
2022/02/08 03:20:24;;;;;;;;;;;;;;;0.71;94.80;98833.34;5094580;28;804;-57
2022/02/08 03:22:50;;;;;;;;;;;;;;;0.68;95.40;98825.91;5093873;28;1493;-59
2022/02/08 03:25:16;;;;;;;;;;;;;;;0.69;94.52;98816.63;5094237;28;810;-63
2022/02/08 03:27:43;;;;;;;;;;;;;;;0.71;95.01;98804.22;5094170;28;926;-57
2022/02/08 03:30:10;;;;;;;;;;;;;;;0.68;94.43;98825.91;5094153;28;1918;-59
2022/02/08 03:32:36;;;;;;;;;;;;;;;0.70;94.83;98801.84;5094053;28;1114;-61
2022/02/08 03:35:03;;;;;;;;;;;;;;;0.66;94.88;98803.72;5094257;28;818;-59
2022/02/08 03:37:32;;;;;;;;;;;;;;;0.64;95.08;98801.38;5094063;28;835;-58
2022/02/08 03:40:05;;;;;;;;;;;;;;;0.54;95.67;98819.06;5094004;28;886;-59
2022/02/08 03:42:39;;;;;;;;;;;;;;;0.53;96.20;98822.13;5093846;28;858;-59
2022/02/08 03:45:10;;;;;;;;;;;;;;;0.55;95.70;98777.09;5093766;28;925;-60
2022/02/08 03:47:37;;;;;;;;;;;;;;;0.51;95.86;98817.06;5093830;28;903;-60
2022/02/08 03:50:04;;;;;;;;;;;;;;;0.46;96.11;98806.47;5093413;28;1921;-59
2022/02/08 03:52:31;;;;;;;;;;;;;;;0.46;96.06;98846.47;5093789;28;807;-59
2022/02/08 03:54:57;;;;;;;;;;;;;;;0.45;96.06;98821.22;5093762;28;803;-57
2022/02/08 03:57:25;;;;;;;;;;;;;;;0.42;96.53;98837.44;5093659;28;795;-58
2022/02/08 03:59:52;;;;;;;;;;;;;;;0.41;96.30;98798.59;5092706;28;909;-58
2022/02/08 04:02:40;;;;;;;;;;;;;;;0.42;96.39;98808.31;5093627;28;803;-58
2022/02/08 04:05:17;;;;;;;;;;;;;;;0.42;97.07;98829.28;5093378;28;914;-59
2022/02/08 04:07:57;;;;;;;;;;;;;;;0.44;97.03;98830.50;5093311;28;862;-59
2022/02/08 04:10:27;;;;;;;;;;;;;;;0.51;96.14;98816.25;5093549;28;1913;-58
2022/02/08 04:13:12;;;;;;;;;;;;;;;0.49;96.36;98821.25;5093038;28;954;-58
2022/02/08 04:18:45;;;;;;;;;;;;;;;0.39;96.31;98826.16;5093154;28;630;-58
2022/02/08 04:32:21;;;;;;;;;;;;;;;0.33;96.70;98878.44;5092892;28;685;-58
2022/02/08 04:35:11;;;;;;;;;;;;;;;0.36;96.79;98875.81;5074536;28;2407;-58
2022/02/08 04:48:10;;;;;;;;;;;;;;;0.46;96.28;98942.41;5092630;28;695;-62
2022/02/08 04:50:38;;;;;;;;;;;;;;;0.44;96.09;98952.06;5092576;28;1881;-63
2022/02/08 04:53:13;;;;;;;;;;;;;;;0.48;96.00;98959.16;5092501;28;881;-63
2022/02/08 04:55:50;;;;;;;;;;;;;;;0.51;95.56;98966.63;5092427;28;890;-62
2022/02/08 05:01:02;;;;;;;;;;;;;;;0.49;95.59;98974.34;5092388;28;743;-60
2022/02/08 05:42:25;;;;;;;;;;;;;;;0.83;95.25;98996.41;5009841;28;968;-65
2022/02/08 05:45:10;;;;;;;;;;;;;;;0.91;94.66;99000.84;5009899;28;899;-63
2022/02/08 05:47:41;;;;;;;;;;;;;;;0.91;94.46;99019.91;4993334;28;1182;-64
2022/02/08 05:50:25;;;;;;;;;;;;;;;0.92;94.26;99007.88;5009710;28;1949;-64
2022/02/08 05:55:25;;;;;;;;;;;;;;;0.88;94.40;99066.09;5009667;28;1104;-64
2022/02/08 05:57:52;;;;;;;;;;;;;;;0.85;95.38;99062.13;5009968;28;815;-62
2022/02/08 06:00:19;;;;;;;;;;;;;;;0.87;95.29;99069.94;5009657;28;938;-63
2022/02/08 06:03:15;;;;;;;;;;;;;;;0.93;94.50;99071.25;5009493;28;820;-63
2022/02/08 06:05:57;;;;;;;;;;;;;;;0.91;94.83;99098.81;5009550;28;978;-64
2022/02/08 06:08:23;;;;;;;;;;;;;;;0.92;94.54;99094.97;5079291;28;913;-64
2022/02/08 06:10:54;;;;;;;;;;;;;;;0.94;93.78;99117.16;5091269;28;1886;-62
2022/02/08 06:13:21;;;;;;;;;;;;;;;0.96;94.45;99125.75;5091383;28;840;-65
2022/02/08 06:15:50;;;;;;;;;;;;;;;1.02;93.51;99128.97;5091446;28;893;-64
2022/02/08 06:18:17;;;;;;;;;;;;;;;1.01;93.50;99127.41;5091704;28;855;-64
2022/02/08 06:20:43;;;;;;;;;;;;;;;1.05;92.79;99150.06;5091275;28;937;-64
2022/02/08 06:23:09;;;;;;;;;;;;;;;0.97;93.59;99140.94;5093451;28;1386;-62
2022/02/08 06:25:36;;;;;;;;;;;;;;;0.97;93.75;99130.06;5095282;28;922;-63
2022/02/08 06:28:02;;;;;;;;;;;;;;;1.01;93.06;99128.19;5095375;28;922;-62
2022/02/08 06:30:29;;;;;;;;;;;;;;;0.97;93.73;99145.59;5095241;28;1909;-61
2022/02/08 06:32:57;;;;;;;;;;;;;;;0.94;93.53;99122.59;5095212;28;815;-63
2022/02/08 06:35:29;;;;;;;;;;;;;;;1.01;93.56;99122.75;5095181;28;958;-62
2022/02/08 06:37:58;;;;;;;;;;;;;;;1.02;93.67;99118.91;5095498;28;846;-61
2022/02/08 06:40:25;;;;;;;;;;;;;;;1.04;92.98;99112.31;5095006;28;865;-61
2022/02/08 06:42:56;;;;;;;;;;;;;;;1.05;92.89;99130.22;5094925;28;822;-61
2022/02/08 06:45:23;;;;;;;;;;;;;;;1.05;93.31;99128.28;5095052;28;807;-67
2022/02/08 06:47:51;;;;;;;;;;;;;;;1.12;91.91;99136.59;5094957;28;842;-66
2022/02/08 06:50:18;;;;;;;;;;;;;;;1.09;92.92;99133.78;5094909;28;1890;-65
2022/02/08 06:52:44;;;;;;;;;;;;;;;1.16;92.20;99147.59;5094874;28;859;-66
2022/02/08 06:55:12;;;;;;;;;;;;;;;1.14;91.99;99158.03;5094793;28;796;-65
2022/02/08 06:57:50;;;;;;;;;;;;;;;1.16;92.40;99142.13;5094833;28;842;-67
2022/02/08 07:00:20;;;;;;;;;;;;;;;1.16;92.51;99129.31;5094749;28;897;-67
2022/02/08 07:02:48;;;;;;;;;;;;;;;0.95;92.28;99121.44;5094765;28;826;-66
2022/02/08 07:05:14;;;;;;;;;;;;;;;1.23;91.82;99159.41;5094650;28;958;-68
2022/02/08 07:07:41;;;;;;;;;;;;;;;1.18;92.24;99161.63;5094769;28;893;-67
2022/02/08 07:10:08;;;;;;;;;;;;;;;1.19;91.94;99180.31;5094896;28;1885;-68
2022/02/08 07:12:33;;;;;;;;;;;;;;;1.21;91.67;99171.78;5094783;28;818;-69
2022/02/08 07:15:07;;;;;;;;;;;;;;;1.25;91.52;99161.78;5094977;28;913;-67
2022/02/08 07:17:34;;;;;;;;;;;;;;;1.31;90.68;99167.75;5094304;28;826;-66
2022/02/08 07:20:00;;;;;;;;;;;;;;;1.38;89.00;99152.31;5094569;28;815;-68
2022/02/08 07:22:26;;;;;;;;;;;;;;;1.42;87.69;99166.03;5093931;28;1418;-66
2022/02/08 07:24:55;;;;;;;;;;;;;;;1.43;88.84;99162.19;5094228;28;866;-67
2022/02/08 07:27:22;;;;;;;;;;;;;;;1.47;87.97;99124.88;5094235;28;856;-64
2022/02/08 07:29:53;;;;;;;;;;;;;;;1.42;88.83;99145.03;5094071;28;1914;-63
2022/02/08 07:32:28;;;;;;;;;;;;;;;1.42;89.58;99152.41;5094218;28;870;-62
2022/02/08 07:35:09;;;;;;;;;;;;;;;1.43;89.97;99138.44;5092582;28;859;-66
2022/02/08 07:37:51;;;;;;;;;;;;;;;1.47;89.32;99154.84;5093961;28;1534;-64
2022/02/08 07:42:53;;;;;;;;;;;;;;;1.47;86.75;99135.78;5093913;28;688;-62
2022/02/08 07:45:20;;;;;;;;;;;;;;;1.37;88.74;99125.47;5093898;28;806;-62
2022/02/08 07:47:47;;;;;;;;;;;;;;;1.32;87.97;99175.53;5093735;28;835;-67
2022/02/08 07:50:14;;;;;;;;;;;;;;;1.31;89.44;99156.84;5093522;28;1882;-65
2022/02/08 07:52:40;;;;;;;;;;;;;;;1.34;89.96;99159.63;5093770;28;795;-68
2022/02/08 07:55:07;;;;;;;;;;;;;;;1.33;88.33;99162.72;5093729;28;807;-68
2022/02/08 07:57:34;;;;;;;;;;;;;;;1.38;89.17;99114.19;5093549;28;907;-65
2022/02/08 08:00:01;;;;;;;;;;;;;;;1.37;88.29;99158.16;5093453;28;823;-63
2022/02/08 08:02:27;;;;;;;;;;;;;;;1.38;88.30;99157.78;5093626;28;827;-66
2022/02/08 08:04:53;;;;;;;;;;;;;;;1.51;88.19;99188.41;5093831;28;799;-67
2022/02/08 08:07:20;;;;;;;;;;;;;;;1.54;86.71;99163.19;5093464;28;873;-63
2022/02/08 08:09:46;;;;;;;;;;;;;;;1.61;86.19;99215.06;5093340;28;1889;-65
2022/02/08 08:12:14;;;;;;;;;;;;;;;1.58;87.14;99176.84;5093256;28;965;-63
2022/02/08 08:14:41;;;;;;;;;;;;;;;1.64;85.48;99199.94;5093163;28;938;-67
2022/02/08 08:19:53;;;;;;;;;;;;;;;1.62;83.95;99161.38;5093227;28;626;-61
2022/02/08 08:22:19;;;;;;;;;;;;;;;1.70;82.93;99192.28;5092847;28;1370;-66
2022/02/08 08:24:46;;;;;;;;;;;;;;;1.77;82.65;99189.69;5093152;28;803;-60
2022/02/08 08:27:14;;;;;;;;;;;;;;;1.81;84.26;99224.09;5092855;28;925;-63
2022/02/08 08:29:41;;;;;;;;;;;;;;;1.93;82.41;99230.53;5092874;28;1909;-61
2022/02/08 08:32:08;;;;;;;;;;;;;;;2.00;81.88;99222.50;5093122;28;881;-61
2022/02/08 08:34:35;;;;;;;;;;;;;;;1.96;80.64;99235.25;5093267;28;826;-61
2022/02/08 08:37:03;;;;;;;;;;;;;;;1.85;82.13;99215.97;5092833;28;826;-60
2022/02/08 08:39:38;;;;;;;;;;;;;;;1.99;81.21;99215.47;5092612;28;861;-59
2022/02/08 08:42:18;;;;;;;;;;;;;;;2.05;81.53;99241.31;5092713;28;866;-59
2022/02/08 08:50:17;;;;;;;;;;;;;;;1.86;80.82;99258.44;5092478;28;1940;-56
2022/02/08 08:52:46;;;;;;;;;;;;;;;1.92;81.26;99245.28;5092716;28;875;-58
2022/02/08 08:55:18;;;;;;;;;;;;;;;1.97;80.89;99234.13;5092352;28;856;-56
2022/02/08 08:57:44;;;;;;;;;;;;;;;1.94;79.90;99270.25;5092468;28;866;-58
2022/02/08 09:00:11;;;;;;;;;;;;;;;1.93;80.52;99265.97;5092249;28;893;-57
2022/02/08 09:02:38;;;;;;;;;;;;;;;1.98;80.08;99273.84;5092262;28;909;-56
2022/02/08 09:05:08;;;;;;;;;;;;;;;2.06;79.60;99266.63;5092371;28;865;-59
2022/02/08 09:30:34;;;;;;;;;;;;;;;2.30;76.05;99323.59;5091680;28;1974;-58
2022/02/08 09:33:01;;;;;;;;;;;;;;;2.32;77.35;99317.78;5091965;28;843;-60
2022/02/08 09:35:27;;;;;;;;;;;;;;;2.40;75.30;99308.59;5073773;28;891;-58
2022/02/08 09:37:54;;;;;;;;;;;;;;;2.38;76.19;99308.16;5092158;28;826;-58
2022/02/08 09:49:55;;;;;;;;;;;;;;;2.31;74.36;99289.72;5091699;28;1893;-54
2022/02/08 09:55:43;;;;;;;;;;;;;;;2.41;74.76;99304.69;5049373;28;649;-53
2022/02/08 10:01:13;;;;;;;;;;;;;;;2.20;74.30;99332.34;5049300;28;643;-58
2022/02/08 10:03:58;;;;;;;;;;;;;;;2.04;76.55;99326.94;5049086;28;942;-57
2022/02/08 10:06:30;;;;;;;;;;;;;;;1.99;76.92;99357.22;5049324;28;843;-57
2022/02/08 10:09:09;;;;;;;;;;;;;;;2.02;76.90;99368.19;5049349;28;1049;-53
2022/02/08 10:11:46;;;;;;;;;;;;;;;2.13;74.55;99343.88;5032836;28;855;-57
2022/02/08 10:22:50;;;;;;;;;;;;;;;2.12;74.66;99349.69;5049191;28;1095;-58
2022/02/08 10:28:15;;;;;;;;;;;;;;;2.09;75.22;99351.22;5049145;28;1009;-56
2022/02/08 10:42:55;;;;;;;;;;;;;;;1.93;75.33;99342.28;5091529;28;613;-57
2022/02/08 10:45:26;;;;;;;;;;;;;;;1.95;74.37;99332.59;5091164;28;894;-57
2022/02/08 10:47:57;;;;;;;;;;;;;;;2.00;73.93;99298.81;5091129;28;877;-57
2022/02/08 10:50:25;;;;;;;;;;;;;;;2.11;74.08;99304.50;5090976;28;1893;-57
2022/02/08 10:52:52;;;;;;;;;;;;;;;2.10;74.57;99289.28;5091306;28;846;-56
2022/02/08 10:55:42;;;;;;;;;;;;;;;2.16;73.98;99296.03;5090970;28;886;-57
2022/02/08 10:58:43;;;;;;;;;;;;;;;2.18;74.65;99324.53;5090805;28;826;-58
2022/02/08 11:01:23;;;;;;;;;;;;;;;2.25;74.76;99329.34;5091027;28;882;-59
2022/02/08 11:03:57;;;;;;;;;;;;;;;2.38;72.96;99338.16;5091032;28;834;-58
2022/02/08 11:06:39;;;;;;;;;;;;;;;2.53;72.03;99317.41;5090921;28;890;-57
2022/02/08 11:09:44;;;;;;;;;;;;;;;2.63;72.76;99325.81;5092676;28;1015;-57
2022/02/08 11:15:55;;;;;;;;;;;;;;;3.00;69.76;99298.00;5094437;28;899;-58
2022/02/08 11:21:29;;;;;;;;;;;;;;;3.36;67.01;99257.63;5094266;28;641;-60
2022/02/08 11:24:05;;;;;;;;;;;;;;;3.47;64.55;99299.56;5093682;28;1474;-57
2022/02/08 11:26:45;;;;;;;;;;;;;;;3.55;64.90;99303.19;5094170;28;849;-56
2022/02/08 11:29:20;;;;;;;;;;;;;;;3.61;63.77;99281.81;5093933;28;1910;-58
2022/02/08 11:32:20;;;;;;;;;;;;;;;3.68;63.36;99320.97;5094001;28;906;-57
2022/02/08 11:43:40;;;;;;;;;;;;;;;4.03;59.77;99350.00;5094278;28;680;-57
2022/02/08 11:46:28;;;;;;;;;;;;;;;4.10;59.79;99357.50;5093580;28;921;-59
2022/02/08 11:51:49;;;;;;;;;;;;;;;4.27;58.76;99383.53;5093682;28;1889;-59
2022/02/08 12:03:02;;;;;;;;;;;;;;;4.48;55.87;99341.94;5093854;28;1388;-58
2022/02/08 12:08:03;;;;;;;;;;;;;;;4.41;57.06;99320.75;5093502;28;672;-58
2022/02/08 12:10:39;;;;;;;;;;;;;;;4.36;56.33;99391.47;5075224;28;1890;-58
2022/02/08 12:36:16;;;;;;;;;;;;;;;4.26;58.84;99330.75;5093297;28;684;-57
2022/02/08 12:57:24;;;;;;;;;;;;;;;4.09;59.52;99334.03;5092580;28;605;-54
2022/02/08 13:24:46;;;;;;;;;;;;;;;4.27;57.03;99397.22;5010159;28;952;-58
2022/02/08 14:03:09;;;;;;;;;;;;;;;4.14;56.80;99466.94;5091888;28;716;-58
2022/02/08 14:10:48;;;;;;;;;;;;;;;4.17;55.50;99507.25;5091386;28;1910;-58
2022/02/08 14:18:41;;;;;;;;;;;;;;;4.19;56.24;99497.53;5091427;28;776;-59
2022/02/08 14:21:07;;;;;;;;;;;;;;;4.23;55.62;99505.78;5090076;28;1734;-58
2022/02/08 14:31:55;;;;;;;;;;;;;;;4.26;54.80;99492.16;5091677;28;1910;-58
2022/02/08 15:09:35;;;;;;;;;;;;;;;4.06;56.76;99557.09;5094591;28;1870;-58
2022/02/08 15:26:51;;;;;;;;;;;;;;;3.78;57.55;99573.78;5091142;28;1442;-59
2022/02/08 15:29:18;;;;;;;;;;;;;;;3.85;56.29;99601.25;5094259;28;823;-59
2022/02/08 15:31:45;;;;;;;;;;;;;;;3.91;56.10;99590.03;5094257;28;1968;-59
2022/02/08 15:34:11;;;;;;;;;;;;;;;3.89;56.47;99591.19;5094152;28;1208;-58
2022/02/08 15:36:38;;;;;;;;;;;;;;;3.87;56.30;99584.50;5093965;28;870;-58
2022/02/08 15:39:08;;;;;;;;;;;;;;;3.84;54.88;99587.94;5093953;28;925;-57
2022/02/08 15:41:39;;;;;;;;;;;;;;;3.90;54.50;99608.38;5093878;28;897;-58
2022/02/08 15:44:17;;;;;;;;;;;;;;;3.91;54.89;99609.19;5093875;28;938;-58
2022/02/08 15:46:45;;;;;;;;;;;;;;;3.84;55.44;99615.28;5093977;28;866;-57
2022/02/08 15:49:13;;;;;;;;;;;;;;;3.93;54.26;99604.13;5093782;28;878;-56
2022/02/08 15:51:49;;;;;;;;;;;;;;;3.86;55.08;99585.63;5093547;28;1886;-57
2022/02/08 15:54:23;;;;;;;;;;;;;;;3.82;55.00;99606.66;5093067;28;941;-58
2022/02/08 16:06:28;;;;;;;;;;;;;;;3.55;55.06;99641.28;5048509;28;1462;-59
2022/02/08 16:08:08;;;;;;;;;;;;;;;3.53;54.76;99600.63;5082131;28;1399;-59
2022/02/08 16:10:51;;;;;;;;;;;;;;;3.46;55.17;99625.88;5093282;28;1889;-59
2022/02/08 16:16:17;;;;;;;;;;;;;;;3.42;54.03;99644.13;5093616;28;853;-57
2022/02/08 16:18:58;;;;;;;;;;;;;;;3.40;54.41;99651.91;5093175;28;934;-59
2022/02/08 16:21:41;;;;;;;;;;;;;;;3.41;54.38;99653.47;5093271;28;889;-58
2022/02/08 16:29:52;;;;;;;;;;;;;;;3.18;53.87;99682.59;5093163;28;731;-58
2022/02/08 16:59:32;;;;;;;;;;;;;;;2.93;55.05;99723.78;5092555;28;708;-57
2022/02/08 17:02:01;;;;;;;;;;;;;;;2.90;55.51;99757.22;5074533;28;850;-58
2022/02/08 17:04:37;;;;;;;;;;;;;;;2.89;54.73;99758.41;5092393;28;921;-58
2022/02/08 17:07:04;;;;;;;;;;;;;;;2.77;55.21;99733.91;5092012;28;898;-59
2022/02/08 17:09:56;;;;;;;;;;;;;;;2.72;55.85;99734.19;5092508;28;1977;-59
2022/02/08 17:12:22;;;;;;;;;;;;;;;2.72;55.87;99756.00;5091514;28;1419;-59
2022/02/08 17:46:59;;;;;;;;;;;;;;;2.51;55.75;99849.00;5092049;28;696;-58
2022/02/08 17:49:25;;;;;;;;;;;;;;;2.41;56.44;99831.19;5091737;28;898;-58
2022/02/08 17:51:51;;;;;;;;;;;;;;;2.47;55.69;99848.91;5091670;28;882;-58
2022/02/08 17:54:19;;;;;;;;;;;;;;;2.44;56.36;99864.03;5091695;28;1212;-59
2022/02/08 17:56:46;;;;;;;;;;;;;;;2.36;56.97;99859.50;5091432;28;993;-59
2022/02/08 17:59:12;;;;;;;;;;;;;;;2.22;57.32;99868.06;5091459;28;838;-58
2022/02/08 18:01:39;;;;;;;;;;;;;;;2.23;56.38;99868.84;5091503;28;870;-59
2022/02/08 18:04:06;;;;;;;;;;;;;;;2.22;57.24;99897.28;5091658;28;885;-59
2022/02/08 18:06:32;;;;;;;;;;;;;;;2.19;58.08;99909.66;5091801;28;841;-58
2022/02/08 18:09:01;;;;;;;;;;;;;;;2.23;57.07;99929.66;5091490;28;838;-58
2022/02/08 18:11:30;;;;;;;;;;;;;;;2.18;58.10;99940.00;5091442;28;1962;-59
2022/02/08 18:13:56;;;;;;;;;;;;;;;2.02;57.48;99929.78;5091601;28;882;-59
2022/02/08 18:16:24;;;;;;;;;;;;;;;2.12;57.62;99936.72;5091625;28;926;-58
2022/02/08 18:18:50;;;;;;;;;;;;;;;2.07;57.90;99950.59;5093012;28;930;-59
2022/02/08 18:21:28;;;;;;;;;;;;;;;2.04;57.73;99948.53;5095762;28;918;-58
2022/02/08 18:24:22;;;;;;;;;;;;;;;2.06;57.17;99973.53;5095380;28;838;-59
2022/02/08 18:57:38;;;;;;;;;;;;;;;1.97;57.62;100047.25;5012880;28;776;-59
2022/02/08 19:07:00;;;;;;;;;;;;;;;1.99;57.06;100071.44;5012946;28;1075;-58
2022/02/08 19:19:05;;;;;;;;;;;;;;;2.04;57.07;100039.28;5012465;28;995;-59
2022/02/08 19:21:36;;;;;;;;;;;;;;;1.99;56.63;100038.75;5012317;28;993;-59
2022/02/08 19:24:02;;;;;;;;;;;;;;;1.89;58.08;100036.44;5012329;28;1074;-58
2022/02/08 19:26:29;;;;;;;;;;;;;;;1.87;57.94;100057.78;5012035;28;1287;-59
2022/02/08 19:28:55;;;;;;;;;;;;;;;1.78;58.03;100063.34;5012008;28;902;-58
2022/02/08 19:31:22;;;;;;;;;;;;;;;1.70;57.83;100056.03;5063123;28;1914;-58
2022/02/08 19:33:49;;;;;;;;;;;;;;;1.79;57.75;100065.72;5094136;28;937;-58
2022/02/08 19:36:16;;;;;;;;;;;;;;;1.86;57.55;100056.19;5094064;28;953;-58
2022/02/08 19:38:48;;;;;;;;;;;;;;;1.88;56.76;100056.66;5094081;28;866;-58
2022/02/08 19:41:18;;;;;;;;;;;;;;;1.79;57.35;100063.00;5075851;28;2475;-59
2022/02/08 19:43:44;;;;;;;;;;;;;;;1.80;57.14;100042.00;5093912;28;882;-57
2022/02/08 19:46:11;;;;;;;;;;;;;;;1.85;57.43;100049.94;5094016;28;909;-58
2022/02/08 19:48:37;;;;;;;;;;;;;;;1.78;57.97;100060.59;5093998;28;932;-58
2022/02/08 19:51:04;;;;;;;;;;;;;;;1.83;57.33;100061.19;5075396;28;1947;-58
2022/02/08 19:53:33;;;;;;;;;;;;;;;1.87;56.96;100055.06;5093968;28;841;-58
2022/02/08 19:56:23;;;;;;;;;;;;;;;1.76;57.91;100057.44;5075567;28;796;-57
2022/02/08 19:58:49;;;;;;;;;;;;;;;1.88;57.24;100041.09;5106519;28;1875;-58
2022/02/08 20:01:23;;;;;;;;;;;;;;;1.93;56.32;100048.25;5093496;28;882;-58
2022/02/08 20:04:33;;;;;;;;;;;;;;;1.94;55.77;100056.13;5093560;28;894;-57
2022/02/08 20:06:40;;;;;;;;;;;;;;;1.88;56.86;100062.09;5082493;28;1554;-58
2022/02/08 20:09:07;;;;;;;;;;;;;;;1.93;55.65;100078.25;5093461;28;910;-57
2022/02/08 20:11:34;;;;;;;;;;;;;;;2.03;56.22;100070.44;5093309;28;1877;-57
2022/02/08 20:14:02;;;;;;;;;;;;;;;2.00;55.92;100101.09;5093443;28;791;-58
2022/02/08 20:16:30;;;;;;;;;;;;;;;1.92;55.81;100084.81;5093815;28;945;-59
2022/02/08 20:19:00;;;;;;;;;;;;;;;1.91;57.08;100080.53;5093415;28;855;-59
2022/02/08 20:21:28;;;;;;;;;;;;;;;1.94;56.54;100088.00;5093824;28;815;-59
2022/02/08 20:23:58;;;;;;;;;;;;;;;1.73;57.58;100091.59;5093406;28;913;-59
2022/02/08 20:26:31;;;;;;;;;;;;;;;1.50;60.35;100090.38;5092719;28;1377;-59
2022/02/08 20:28:58;;;;;;;;;;;;;;;1.51;58.82;100094.69;5093178;28;834;-59
2022/02/08 20:31:25;;;;;;;;;;;;;;;1.52;59.17;100101.75;5092994;28;1969;-59
2022/02/08 20:33:54;;;;;;;;;;;;;;;1.46;59.63;100098.41;5074944;28;949;-59
2022/02/08 20:36:42;;;;;;;;;;;;;;;1.46;58.71;100098.41;5093046;28;830;-59
2022/02/08 20:39:09;;;;;;;;;;;;;;;1.64;58.34;100099.03;5092837;28;910;-59
2022/02/08 20:53:52;;;;;;;;;;;;;;;1.46;59.88;100131.09;5092998;28;605;-58
2022/02/08 20:56:30;;;;;;;;;;;;;;;1.37;59.17;100128.44;5092609;28;827;-58
2022/02/08 21:01:30;;;;;;;;;;;;;;;1.69;58.11;100130.75;5092484;28;708;-58
2022/02/08 21:04:04;;;;;;;;;;;;;;;1.52;58.92;100139.88;5092354;28;889;-58
2022/02/08 21:06:31;;;;;;;;;;;;;;;1.35;59.38;100141.59;5092261;28;851;-58
2022/02/08 21:09:00;;;;;;;;;;;;;;;1.33;59.22;100153.97;5092410;28;799;-58
2022/02/08 21:11:39;;;;;;;;;;;;;;;1.24;59.06;100154.03;5092204;28;1889;-58
2022/02/08 21:14:11;;;;;;;;;;;;;;;0.97;61.26;100153.38;5092011;28;961;-58
2022/02/08 21:16:42;;;;;;;;;;;;;;;0.78;62.11;100145.63;5092509;28;953;-58
2022/02/08 21:19:19;;;;;;;;;;;;;;;0.93;61.00;100157.09;5092012;28;938;-57
2022/02/08 21:21:46;;;;;;;;;;;;;;;1.14;60.36;100154.41;5092138;28;812;-59
2022/02/08 21:24:13;;;;;;;;;;;;;;;1.17;60.34;100161.91;5092275;28;937;-58
2022/02/08 21:26:45;;;;;;;;;;;;;;;1.07;61.81;100159.56;5092072;28;1261;-58
2022/02/08 21:29:29;;;;;;;;;;;;;;;0.85;63.66;100163.38;5092050;28;843;-58
2022/02/08 21:53:25;;;;;;;;;;;;;;;0.04;69.42;100211.31;5091711;28;672;-58
2022/02/08 21:55:57;;;;;;;;;;;;;;;0.15;67.58;100198.97;5091604;28;874;-59
2022/02/08 21:58:24;;;;;;;;;;;;;;;0.28;66.17;100203.44;5073886;28;1338;-58
2022/02/08 22:00:54;;;;;;;;;;;;;;;0.38;66.83;100203.09;5091868;28;930;-59
2022/02/08 22:03:20;;;;;;;;;;;;;;;0.19;68.04;100210.78;5091573;28;874;-58
2022/02/08 22:05:46;;;;;;;;;;;;;;;0.09;68.70;100206.50;5091850;28;835;-58
2022/02/08 22:08:16;;;;;;;;;;;;;;;-0.02;69.85;100216.91;5091806;28;826;-59
2022/02/08 22:16:34;;;;;;;;;;;;;;;-0.41;70.07;100228.72;5091609;28;916;-59
2022/02/08 22:19:12;;;;;;;;;;;;;;;-0.46;70.15;100228.88;5091390;28;842;-58
2022/02/08 22:22:01;;;;;;;;;;;;;;;-0.38;70.59;100228.09;5091520;28;889;-59
2022/02/08 22:24:37;;;;;;;;;;;;;;;-0.51;71.36;100226.31;5091302;28;846;-58
2022/02/08 22:32:52;;;;;;;;;;;;;;;-0.47;70.50;100236.25;5009307;28;1188;-58
2022/02/08 22:35:30;;;;;;;;;;;;;;;-0.44;71.07;100235.59;5009399;28;874;-59